Log in Register

Login to your account

Username *
Password *
Remember Me

Create an account

Fields marked with an asterisk (*) are required.
Name *
Username *
Password *
Verify password *
Email *
Verify email *
Captcha *

Nous contacter

 Téléphone : +33 (0)4 79 54 41 81

Coordonnées détaillées et accès : cliquez ici

facebook 770688 960 720  logo instagram large

[source: ADDS]
METAR / TAF
LFLB 262330Z AUTO VRB02KT CAVOK 13/11 Q1024 =
TAF LFLB 261400Z 2615/2715 35007KT CAVOK TEMPO 2702/2707 VRB02KT

SR / SS: 03:53 / 19:13 UTC (Lever/Coucher du soleil le 2022-05-27)
JSN Boot template designed by JoomlaShine.com